createdAt,value
2022-10-26T00:01:06.854Z,1.17
2022-10-26T00:03:37.541Z,2.42
2022-10-26T00:06:07.979Z,1.95
2022-10-26T00:08:36.316Z,1.83
2022-10-26T00:11:05.093Z,2.63
2022-10-26T00:13:33.445Z,1.80
2022-10-26T00:16:01.463Z,1.98
2022-10-26T00:18:29.881Z,1.80
2022-10-26T00:21:04.313Z,3.15
2022-10-26T00:23:32.597Z,2.20
2022-10-26T00:26:00.830Z,2.10
2022-10-26T00:28:29.083Z,2.40
2022-10-26T00:31:01.201Z,2.35
2022-10-26T00:33:30.208Z,1.50
2022-10-26T00:35:59.816Z,1.73
2022-10-26T00:38:27.915Z,1.50
2022-10-26T00:40:55.856Z,1.30
2022-10-26T00:43:40.570Z,1.77
2022-10-26T00:46:14.952Z,0.90
2022-10-26T00:48:47.173Z,0.80
2022-10-26T00:51:22.064Z,0.80
2022-10-26T00:53:50.959Z,0.68
2022-10-26T00:56:19.594Z,0.60
2022-10-26T00:58:48.147Z,0.45
2022-10-26T01:01:16.864Z,0.40
2022-10-26T01:03:46.023Z,0.70
2022-10-26T01:06:15.390Z,0.65
2022-10-26T01:08:45.560Z,0.77
2022-10-26T01:11:13.928Z,0.52
2022-10-26T01:13:45.504Z,0.60
2022-10-26T01:16:40.812Z,0.63
2022-10-26T01:19:40.251Z,0.50
2022-10-26T01:22:13.946Z,0.30
2022-10-26T01:25:02.200Z,2.08
2022-10-26T01:27:33.245Z,0.68
2022-10-26T01:30:19.595Z,0.45
2022-10-26T01:32:57.500Z,0.45
2022-10-26T01:35:31.290Z,0.70
2022-10-26T01:38:08.603Z,2.78
2022-10-26T01:40:41.669Z,1.50
2022-10-26T01:43:13.362Z,0.85
2022-10-26T01:45:46.554Z,0.50
2022-10-26T01:48:19.682Z,0.82
2022-10-26T01:50:51.903Z,0.90
2022-10-26T01:53:21.020Z,0.52
2022-10-26T01:55:51.168Z,0.40
2022-10-26T01:58:49.254Z,1.05
2022-10-26T02:01:44.384Z,1.10
2022-10-26T02:04:26.343Z,0.50
2022-10-26T02:07:02.574Z,0.40
2022-10-26T02:09:39.182Z,0.57
2022-10-26T02:12:15.950Z,0.30
2022-10-26T02:14:50.945Z,1.05
2022-10-26T02:17:28.941Z,0.20
2022-10-26T02:20:03.458Z,0.30
2022-10-26T02:22:36.084Z,1.05
2022-10-26T02:25:09.550Z,0.35
2022-10-26T02:27:42.982Z,0.40
2022-10-26T02:30:13.802Z,0.40
2022-10-26T02:32:47.245Z,0.57
2022-10-26T02:35:17.184Z,0.40
2022-10-26T02:37:48.616Z,3.15
2022-10-26T02:40:22.426Z,0.32
2022-10-26T02:42:52.817Z,1.05
2022-10-26T02:45:25.602Z,0.63
2022-10-26T02:47:55.984Z,0.30
2022-10-26T02:50:31.469Z,0.10
2022-10-26T02:53:06.388Z,0.30
2022-10-26T02:55:37.984Z,0.50
2022-10-26T02:58:13.107Z,1.05
2022-10-26T03:00:41.485Z,0.50
2022-10-26T03:03:10.798Z,0.98
2022-10-26T03:05:44.213Z,0.50
2022-10-26T03:08:12.273Z,0.63
2022-10-26T03:10:42.439Z,1.08
2022-10-26T03:13:10.945Z,0.60
2022-10-26T03:15:38.926Z,0.80
2022-10-26T03:18:07.686Z,0.50
2022-10-26T03:20:37.329Z,0.80
2022-10-26T03:23:05.388Z,1.02
2022-10-26T03:25:33.231Z,0.63
2022-10-26T03:28:02.985Z,0.57
2022-10-26T03:30:32.254Z,1.13
2022-10-26T03:33:00.194Z,0.63
2022-10-26T03:35:28.621Z,0.68
2022-10-26T03:37:57.832Z,0.98
2022-10-26T03:40:25.747Z,0.95
2022-10-26T03:42:53.833Z,0.70
2022-10-26T03:45:21.693Z,0.45
2022-10-26T03:47:51.006Z,0.50
2022-10-26T03:50:21.233Z,0.52
2022-10-26T03:52:50.406Z,0.90
2022-10-26T03:55:20.529Z,1.40
2022-10-26T03:57:48.714Z,0.55
2022-10-26T04:00:18.691Z,1.58
2022-10-26T04:02:54.853Z,0.85
2022-10-26T04:05:22.729Z,0.93
2022-10-26T04:07:53.834Z,0.70
2022-10-26T04:10:23.492Z,1.35
2022-10-26T04:12:52.178Z,1.20
2022-10-26T04:15:20.465Z,1.77
2022-10-26T04:17:49.360Z,1.45
2022-10-26T04:20:17.518Z,1.55
2022-10-26T04:22:45.538Z,1.27
2022-10-26T04:25:13.736Z,0.80
2022-10-26T04:27:43.006Z,2.38
2022-10-26T04:30:11.725Z,1.10
2022-10-26T04:32:39.600Z,2.40
2022-10-26T04:35:09.981Z,3.20
2022-10-26T04:37:39.863Z,2.25
2022-10-26T04:40:08.365Z,1.35
2022-10-26T04:42:43.608Z,1.02
2022-10-26T04:45:13.045Z,1.05
2022-10-26T04:47:40.962Z,1.85
2022-10-26T04:50:10.137Z,1.77
2022-10-26T04:52:38.511Z,1.80
2022-10-26T04:55:07.881Z,1.15
2022-10-26T04:57:36.524Z,1.50
2022-10-26T05:00:06.784Z,1.90
2022-10-26T05:02:34.703Z,2.75
2022-10-26T05:07:31.598Z,1.23
2022-10-26T05:09:59.397Z,2.00
2022-10-26T05:12:27.388Z,1.88
2022-10-26T05:14:59.092Z,1.75
2022-10-26T05:17:28.801Z,1.38
2022-10-26T05:19:58.312Z,2.58
2022-10-26T05:22:26.804Z,3.38
2022-10-26T05:24:55.126Z,3.83
2022-10-26T05:27:23.006Z,2.50
2022-10-26T05:29:50.938Z,2.42
2022-10-26T05:32:19.651Z,2.40
2022-10-26T05:34:48.893Z,1.95
2022-10-26T05:37:16.838Z,1.33
2022-10-26T05:39:44.815Z,1.25
2022-10-26T05:42:12.727Z,2.78
2022-10-26T05:44:40.669Z,0.77
2022-10-26T05:47:08.652Z,1.13
2022-10-26T05:49:36.592Z,2.10
2022-10-26T05:52:06.393Z,1.15
2022-10-26T05:54:34.397Z,0.60
2022-10-26T05:57:02.805Z,1.13
2022-10-26T05:59:31.463Z,1.88
2022-10-26T06:02:13.242Z,1.40
2022-10-26T06:04:48.187Z,1.05
2022-10-26T06:07:20.205Z,1.60
2022-10-26T06:09:49.406Z,1.88
2022-10-26T06:12:19.649Z,1.33
2022-10-26T06:14:48.903Z,3.25
2022-10-26T06:17:34.258Z,2.25
2022-10-26T06:20:21.335Z,1.08
2022-10-26T06:23:04.884Z,1.58
2022-10-26T06:25:44.560Z,1.63
2022-10-26T06:28:23.756Z,1.80
2022-10-26T06:30:51.888Z,2.38
2022-10-26T06:33:32.386Z,1.90
2022-10-26T06:36:13.607Z,2.70
2022-10-26T06:38:45.441Z,3.35
2022-10-26T06:41:16.476Z,2.88
2022-10-26T06:43:44.981Z,2.20
2022-10-26T06:46:24.989Z,2.67
2022-10-26T06:49:04.553Z,2.33
2022-10-26T06:51:37.455Z,1.73
2022-10-26T06:54:14.405Z,2.88
2022-10-26T06:56:43.185Z,5.53
2022-10-26T06:59:24.849Z,1.48
2022-10-26T07:01:53.159Z,2.17
2022-10-26T07:04:21.197Z,1.42
2022-10-26T07:06:49.105Z,2.33
2022-10-26T07:09:19.655Z,2.80
2022-10-26T07:11:47.517Z,2.05
2022-10-26T07:14:15.377Z,2.42
2022-10-26T07:16:44.088Z,1.92
2022-10-26T07:19:11.919Z,2.40
2022-10-26T07:21:39.794Z,1.92
2022-10-26T07:24:08.487Z,2.22
2022-10-26T07:26:37.997Z,1.05
2022-10-26T07:29:05.927Z,2.15
2022-10-26T07:31:34.303Z,0.95
2022-10-26T07:34:02.625Z,0.80
2022-10-26T07:36:30.584Z,3.75
2022-10-26T07:38:58.723Z,1.08
2022-10-26T07:41:26.524Z,0.93
2022-10-26T07:43:55.778Z,1.45
2022-10-26T07:46:23.849Z,1.20
2022-10-26T07:48:51.693Z,2.83
2022-10-26T07:51:19.929Z,0.90
2022-10-26T07:53:48.766Z,2.08
2022-10-26T07:56:16.766Z,1.30
2022-10-26T07:58:44.643Z,1.20
2022-10-26T08:01:16.914Z,0.90
2022-10-26T08:03:45.081Z,0.98
2022-10-26T08:06:14.536Z,0.73
2022-10-26T08:08:45.089Z,1.00
2022-10-26T08:11:16.095Z,0.60
2022-10-26T08:13:44.196Z,1.42
2022-10-26T08:16:13.827Z,0.93
2022-10-26T08:18:41.726Z,0.70
2022-10-26T08:21:18.073Z,0.50
2022-10-26T08:23:49.453Z,0.50
2022-10-26T08:26:18.759Z,0.50
2022-10-26T08:28:51.075Z,0.73
2022-10-26T08:31:20.476Z,0.95
2022-10-26T08:33:48.769Z,0.90
2022-10-26T08:36:21.779Z,0.60
2022-10-26T08:38:49.748Z,1.73
2022-10-26T08:41:17.900Z,0.60
2022-10-26T08:43:52.116Z,0.50
2022-10-26T08:46:26.741Z,0.50
2022-10-26T08:48:57.466Z,1.10
2022-10-26T08:51:30.634Z,0.50
2022-10-26T08:54:02.032Z,0.40
2022-10-26T08:56:36.814Z,0.57
2022-10-26T08:59:13.442Z,0.55
2022-10-26T09:01:43.035Z,0.95
2022-10-26T09:04:13.572Z,0.50
2022-10-26T09:06:54.939Z,1.77
2022-10-26T09:09:28.041Z,1.80
2022-10-26T09:12:06.871Z,1.10
2022-10-26T09:14:43.809Z,1.80
2022-10-26T09:17:23.957Z,0.60
2022-10-26T09:20:15.247Z,2.72
2022-10-26T09:22:52.179Z,0.40
2022-10-26T09:25:23.342Z,1.08
2022-10-26T09:27:56.081Z,0.40
2022-10-26T09:30:24.818Z,0.52
2022-10-26T09:32:59.092Z,0.65
2022-10-26T09:38:12.655Z,0.45
2022-10-26T09:40:49.408Z,0.55
2022-10-26T09:43:22.135Z,1.55
2022-10-26T09:45:53.065Z,0.40
2022-10-26T09:48:32.308Z,0.60
2022-10-26T09:51:03.734Z,1.02
2022-10-26T09:53:33.083Z,1.48
2022-10-26T09:56:06.813Z,0.40
2022-10-26T09:58:41.596Z,0.50
2022-10-26T10:01:22.763Z,0.45
2022-10-26T10:04:11.896Z,0.40
2022-10-26T10:06:39.925Z,1.27
2022-10-26T10:09:11.808Z,1.00
2022-10-26T10:11:41.485Z,0.82
2022-10-26T10:14:15.041Z,1.48
2022-10-26T10:16:51.021Z,1.73
2022-10-26T10:19:26.140Z,0.55
2022-10-26T10:21:57.340Z,0.77
2022-10-26T10:24:28.098Z,0.57
2022-10-26T10:27:05.194Z,0.57
2022-10-26T10:29:35.772Z,0.98
2022-10-26T10:32:05.014Z,6.25
2022-10-26T10:34:36.265Z,0.70
2022-10-26T10:37:05.313Z,0.73
2022-10-26T10:39:39.972Z,0.65
2022-10-26T10:42:18.185Z,0.85
2022-10-26T10:44:47.726Z,0.65
2022-10-26T10:47:23.565Z,0.60
2022-10-26T10:49:59.252Z,0.70
2022-10-26T10:52:30.150Z,1.10
2022-10-26T10:55:19.555Z,0.77
2022-10-26T10:58:02.783Z,0.93
2022-10-26T11:00:33.723Z,1.55
2022-10-26T11:03:25.033Z,1.40
2022-10-26T11:06:03.007Z,0.77
2022-10-26T11:08:37.456Z,0.40
2022-10-26T11:11:10.032Z,0.68
2022-10-26T11:13:41.429Z,2.38
2022-10-26T11:16:16.361Z,0.50
2022-10-26T11:18:49.677Z,1.38
2022-10-26T11:21:28.365Z,0.73
2022-10-26T11:24:11.140Z,1.95
2022-10-26T11:26:46.280Z,1.02
2022-10-26T11:29:26.069Z,0.25
2022-10-26T11:31:58.776Z,0.30
2022-10-26T11:34:32.809Z,0.40
2022-10-26T11:37:09.785Z,0.60
2022-10-26T11:39:44.668Z,1.02
2022-10-26T11:42:23.512Z,1.88
2022-10-26T11:44:56.166Z,0.77
2022-10-26T11:47:30.665Z,3.40
2022-10-26T11:50:05.897Z,1.40
2022-10-26T11:52:41.342Z,1.90
2022-10-26T11:55:11.668Z,1.63
2022-10-26T11:57:40.040Z,2.08
2022-10-26T12:00:10.577Z,3.78
2022-10-26T12:05:21.225Z,2.50
2022-10-26T12:07:54.383Z,3.28
2022-10-26T12:10:28.919Z,2.83
2022-10-26T12:13:05.477Z,2.20
2022-10-26T12:16:01.671Z,2.65
2022-10-26T12:18:53.856Z,2.13
2022-10-26T12:21:21.307Z,2.10
2022-10-26T12:24:01.687Z,1.85
2022-10-26T12:26:53.929Z,1.73
2022-10-26T12:29:49.406Z,1.55
2022-10-26T12:32:51.465Z,1.70
2022-10-26T12:35:40.208Z,2.53
2022-10-26T12:38:48.232Z,3.60
2022-10-26T12:41:23.035Z,2.83
2022-10-26T12:43:51.157Z,1.92
2022-10-26T12:46:41.177Z,1.70
2022-10-26T12:50:00.578Z,2.00
2022-10-26T12:52:42.163Z,1.90
2022-10-26T12:55:49.223Z,2.65
2022-10-26T12:58:36.397Z,1.73
2022-10-26T13:01:24.541Z,3.67
2022-10-26T13:04:01.440Z,1.90
2022-10-26T13:06:45.512Z,2.03
2022-10-26T13:09:20.015Z,1.95
2022-10-26T13:11:51.098Z,1.70
2022-10-26T13:14:27.014Z,1.63
2022-10-26T13:16:55.522Z,4.13
2022-10-26T13:19:28.394Z,3.15
2022-10-26T13:22:00.201Z,2.03
2022-10-26T13:24:30.610Z,2.28
2022-10-26T13:27:32.033Z,2.47
2022-10-26T13:30:35.998Z,2.70
2022-10-26T13:33:05.129Z,1.20
2022-10-26T13:35:33.713Z,1.90
2022-10-26T13:38:08.954Z,3.60
2022-10-26T13:40:39.133Z,2.25
2022-10-26T13:43:12.762Z,2.13
2022-10-26T13:45:50.549Z,2.40
2022-10-26T13:48:21.658Z,2.25
2022-10-26T13:50:52.828Z,2.13
2022-10-26T13:53:25.395Z,2.85
2022-10-26T13:55:55.235Z,2.88
2022-10-26T13:58:30.193Z,2.03
2022-10-26T14:01:16.386Z,2.28
2022-10-26T14:03:45.163Z,1.75
2022-10-26T14:06:19.259Z,2.75
2022-10-26T14:08:49.692Z,2.35
2022-10-26T14:11:20.575Z,3.25
2022-10-26T14:13:50.462Z,2.42
2022-10-26T14:16:21.639Z,4.70
2022-10-26T14:18:50.264Z,3.00
2022-10-26T14:21:22.550Z,3.95
2022-10-26T14:23:52.936Z,4.70
2022-10-26T14:26:22.398Z,4.72
2022-10-26T14:28:52.376Z,4.15
2022-10-26T14:31:26.283Z,3.80
2022-10-26T14:33:55.384Z,3.47
2022-10-26T14:36:26.806Z,3.47
2022-10-26T14:38:59.163Z,4.85
2022-10-26T14:41:28.581Z,2.97
2022-10-26T14:43:59.566Z,3.47
2022-10-26T14:46:34.883Z,5.50
2022-10-26T14:49:04.104Z,4.63
2022-10-26T14:51:36.820Z,4.07
2022-10-26T14:54:05.958Z,4.13
2022-10-26T14:56:41.819Z,4.03
2022-10-26T14:59:19.860Z,6.65
2022-10-26T15:01:52.299Z,4.53
2022-10-26T15:04:39.385Z,4.57
2022-10-26T15:07:17.027Z,3.63
2022-10-26T15:09:46.235Z,4.30
2022-10-26T15:12:30.036Z,3.55
2022-10-26T15:15:06.606Z,3.80
2022-10-26T15:17:40.884Z,3.95
2022-10-26T15:20:17.061Z,4.13
2022-10-26T15:22:51.702Z,3.78
2022-10-26T15:25:23.325Z,13.15
2022-10-26T15:27:52.692Z,4.10
2022-10-26T15:30:25.893Z,3.63
2022-10-26T15:32:57.139Z,3.20
2022-10-26T15:35:30.630Z,2.63
2022-10-26T15:38:01.134Z,3.83
2022-10-26T15:40:32.098Z,2.70
2022-10-26T15:43:02.041Z,3.88
2022-10-26T15:45:33.174Z,2.50
2022-10-26T15:48:20.625Z,4.18
2022-10-26T15:50:48.445Z,1.83
2022-10-26T15:53:20.708Z,2.40
2022-10-26T15:55:49.437Z,1.65
2022-10-26T15:58:17.457Z,1.75
2022-10-26T16:00:45.386Z,1.40
2022-10-26T16:03:23.252Z,1.50
2022-10-26T16:05:57.438Z,1.50
2022-10-26T16:08:28.352Z,3.03
2022-10-26T16:10:56.527Z,2.75
2022-10-26T16:13:24.533Z,1.67
2022-10-26T16:15:52.553Z,1.80
2022-10-26T16:18:21.856Z,3.50
2022-10-26T16:20:49.827Z,2.28
2022-10-26T16:23:18.039Z,2.30
2022-10-26T16:25:47.535Z,2.28
2022-10-26T16:28:17.694Z,2.40
2022-10-26T16:30:46.060Z,3.45
2022-10-26T16:33:14.172Z,2.70
2022-10-26T16:35:43.573Z,2.60
2022-10-26T16:38:11.492Z,2.70
2022-10-26T16:40:42.666Z,3.33
2022-10-26T16:43:10.731Z,3.25
2022-10-26T16:45:41.070Z,3.65
2022-10-26T16:48:14.476Z,2.40
2022-10-26T16:50:43.935Z,3.20
2022-10-26T16:53:11.905Z,2.80
2022-10-26T16:55:39.939Z,3.70
2022-10-26T16:58:08.129Z,2.63
2022-10-26T17:00:36.615Z,3.10
2022-10-26T17:03:05.042Z,3.72
2022-10-26T17:05:33.104Z,4.90
2022-10-26T17:08:02.339Z,3.20
2022-10-26T17:10:30.311Z,2.53
2022-10-26T17:12:58.306Z,3.10
2022-10-26T17:15:29.017Z,2.55
2022-10-26T17:17:57.123Z,2.92
2022-10-26T17:20:25.735Z,2.50
2022-10-26T17:22:53.594Z,2.42
2022-10-26T17:25:22.820Z,2.20
2022-10-26T17:27:50.834Z,2.30
2022-10-26T17:30:18.863Z,2.25
2022-10-26T17:32:46.851Z,2.78
2022-10-26T17:35:17.024Z,2.00
2022-10-26T17:37:44.876Z,2.65
2022-10-26T17:40:13.426Z,2.80
2022-10-26T17:42:42.871Z,2.25
2022-10-26T17:45:11.236Z,2.63
2022-10-26T17:47:39.172Z,2.95
2022-10-26T17:50:08.144Z,2.65
2022-10-26T17:52:36.202Z,3.22
2022-10-26T17:55:04.189Z,2.35
2022-10-26T17:57:34.278Z,3.17
2022-10-26T18:00:03.979Z,4.30
2022-10-26T18:02:32.148Z,2.75
2022-10-26T18:05:03.766Z,3.25
2022-10-26T18:07:34.490Z,3.33
2022-10-26T18:10:14.075Z,3.17
2022-10-26T18:12:50.757Z,3.25
2022-10-26T18:15:20.558Z,2.75
2022-10-26T18:17:51.535Z,4.30
2022-10-26T18:20:20.621Z,2.50
2022-10-26T18:22:48.896Z,3.00
2022-10-26T18:25:17.029Z,2.53
2022-10-26T18:27:44.831Z,2.67
2022-10-26T18:30:13.752Z,3.10
2022-10-26T18:32:43.042Z,2.65
2022-10-26T18:35:10.968Z,2.72
2022-10-26T18:37:39.010Z,4.72
2022-10-26T18:40:08.224Z,2.42
2022-10-26T18:42:36.485Z,2.58
2022-10-26T18:45:05.280Z,2.60
2022-10-26T18:47:33.890Z,3.13
2022-10-26T18:50:03.107Z,2.95
2022-10-26T18:52:31.198Z,2.80
2022-10-26T18:54:59.221Z,2.00
2022-10-26T18:57:28.900Z,2.78
2022-10-26T18:59:56.965Z,3.20
2022-10-26T19:02:24.849Z,2.70
2022-10-26T19:04:53.754Z,4.10
2022-10-26T19:07:23.103Z,2.50
2022-10-26T19:09:50.950Z,2.42
2022-10-26T19:12:18.833Z,3.28
2022-10-26T19:14:47.039Z,2.63
2022-10-26T19:17:14.900Z,2.65
2022-10-26T19:19:42.724Z,4.05
2022-10-26T19:22:11.353Z,2.50
2022-10-26T19:24:40.792Z,3.88
2022-10-26T19:27:08.687Z,2.63
2022-10-26T19:29:37.104Z,2.63
2022-10-26T19:32:05.383Z,2.50
2022-10-26T19:34:33.233Z,2.03
2022-10-26T19:37:01.373Z,2.03
2022-10-26T19:39:29.237Z,2.22
2022-10-26T19:41:58.454Z,1.88
2022-10-26T19:44:26.530Z,2.75
2022-10-26T19:46:54.345Z,2.33
2022-10-26T19:49:22.309Z,3.30
2022-10-26T19:51:50.426Z,3.00
2022-10-26T19:54:18.373Z,2.25
2022-10-26T19:56:46.312Z,2.22
2022-10-26T19:59:16.320Z,2.60
2022-10-26T20:01:44.467Z,2.47
2022-10-26T20:04:13.260Z,2.50
2022-10-26T20:06:41.392Z,2.05
2022-10-26T20:09:09.396Z,2.55
2022-10-26T20:11:39.778Z,2.00
2022-10-26T20:14:08.459Z,1.77
2022-10-26T20:16:37.695Z,2.45
2022-10-26T20:19:05.817Z,3.13
2022-10-26T20:21:33.979Z,1.92
2022-10-26T20:24:02.504Z,2.35
2022-10-26T20:26:32.501Z,2.33
2022-10-26T20:29:00.717Z,2.47
2022-10-26T20:31:28.629Z,3.17
2022-10-26T20:33:58.032Z,2.58
2022-10-26T20:36:26.599Z,5.80
2022-10-26T20:38:55.124Z,2.05
2022-10-26T20:41:23.736Z,3.45
2022-10-26T20:43:54.465Z,2.20
2022-10-26T20:46:26.935Z,2.78
2022-10-26T20:48:57.403Z,2.58
2022-10-26T20:51:40.037Z,2.45
2022-10-26T20:54:16.763Z,3.17
2022-10-26T20:56:46.736Z,2.00
2022-10-26T20:59:23.689Z,2.85
2022-10-26T21:01:51.739Z,2.22
2022-10-26T21:04:21.214Z,3.30
2022-10-26T21:06:49.088Z,2.28
2022-10-26T21:09:16.916Z,3.33
2022-10-26T21:11:45.487Z,3.05
2022-10-26T21:14:13.460Z,2.13
2022-10-26T21:16:41.328Z,1.80
2022-10-26T21:19:09.344Z,2.05
2022-10-26T21:21:38.664Z,1.75
2022-10-26T21:24:07.708Z,2.38
2022-10-26T21:26:35.780Z,2.50
2022-10-26T21:29:03.738Z,2.45
2022-10-26T21:31:31.855Z,2.00
2022-10-26T21:33:59.946Z,2.33
2022-10-26T21:36:28.322Z,2.15
2022-10-26T21:38:57.583Z,2.33
2022-10-26T21:44:03.383Z,2.40
2022-10-26T21:46:38.309Z,2.08
2022-10-26T21:49:06.380Z,1.90
2022-10-26T21:51:35.025Z,2.35
2022-10-26T21:54:05.508Z,2.33
2022-10-26T21:56:33.439Z,2.30
2022-10-26T21:59:01.903Z,2.30
2022-10-26T22:01:30.236Z,2.03
2022-10-26T22:03:58.668Z,2.63
2022-10-26T22:06:26.524Z,2.17
2022-10-26T22:08:54.597Z,2.20
2022-10-26T22:11:25.587Z,1.98
2022-10-26T22:13:54.208Z,2.03
2022-10-26T22:16:24.178Z,2.38
2022-10-26T22:18:53.742Z,3.58
2022-10-26T22:21:23.410Z,2.25
2022-10-26T22:23:51.451Z,2.30
2022-10-26T22:26:21.038Z,1.70
2022-10-26T22:28:53.741Z,3.17
2022-10-26T22:31:23.810Z,1.83
2022-10-26T22:33:55.610Z,3.08
2022-10-26T22:36:24.611Z,2.25
2022-10-26T22:38:53.192Z,1.88
2022-10-26T22:41:22.988Z,3.75
2022-10-26T22:43:52.702Z,1.90
2022-10-26T22:46:22.104Z,2.08
2022-10-26T22:48:55.085Z,2.15
2022-10-26T22:51:25.124Z,2.10
2022-10-26T22:53:56.206Z,2.67
2022-10-26T22:58:59.844Z,1.80
2022-10-26T23:01:31.495Z,1.58
2022-10-26T23:04:00.200Z,1.40
2022-10-26T23:06:29.628Z,1.77
2022-10-26T23:08:58.462Z,2.10
2022-10-26T23:11:28.628Z,1.92
2022-10-26T23:13:58.061Z,1.60
2022-10-26T23:16:28.631Z,1.73
2022-10-26T23:18:57.180Z,1.58
2022-10-26T23:23:55.372Z,2.20
2022-10-26T23:26:23.374Z,2.95
2022-10-26T23:28:51.505Z,1.70
2022-10-26T23:31:21.927Z,5.35
2022-10-26T23:33:52.555Z,2.67
2022-10-26T23:36:21.016Z,3.15
2022-10-26T23:38:49.285Z,2.85
2022-10-26T23:41:17.190Z,3.17
2022-10-26T23:43:45.086Z,3.47
2022-10-26T23:46:13.112Z,2.45
2022-10-26T23:48:40.954Z,3.78
2022-10-26T23:51:10.352Z,2.50
2022-10-26T23:53:38.293Z,4.10
2022-10-26T23:56:06.799Z,3.78
2022-10-26T23:58:34.821Z,3.95
